createdAt,value
2022-10-17T00:00:58.366Z,12.89
2022-10-17T00:03:27.594Z,12.87
2022-10-17T00:05:55.380Z,12.79
2022-10-17T00:08:23.188Z,12.77
2022-10-17T00:10:58.069Z,12.81
2022-10-17T00:13:26.330Z,12.76
2022-10-17T00:15:54.446Z,12.81
2022-10-17T00:18:22.568Z,12.78
2022-10-17T00:20:51.841Z,12.80
2022-10-17T00:23:19.945Z,12.67
2022-10-17T00:25:47.799Z,12.70
2022-10-17T00:28:17.124Z,12.66
2022-10-17T00:30:44.955Z,12.74
2022-10-17T00:33:12.589Z,12.83
2022-10-17T00:35:40.274Z,12.73
2022-10-17T00:38:09.321Z,12.61
2022-10-17T00:40:37.126Z,12.57
2022-10-17T00:43:05.210Z,12.56
2022-10-17T00:45:33.310Z,12.53
2022-10-17T00:48:06.068Z,12.57
2022-10-17T00:50:36.066Z,12.62
2022-10-17T00:53:06.557Z,12.60
2022-10-17T00:55:39.283Z,12.62
2022-10-17T00:58:07.936Z,12.58
2022-10-17T01:00:36.885Z,12.63
2022-10-17T01:03:04.817Z,12.66
2022-10-17T01:05:32.680Z,12.65
2022-10-17T01:08:00.641Z,12.66
2022-10-17T01:10:34.148Z,12.67
2022-10-17T01:13:12.575Z,12.51
2022-10-17T01:15:49.682Z,12.44
2022-10-17T01:18:32.720Z,12.44
2022-10-17T01:21:34.633Z,12.42
2022-10-17T01:24:32.652Z,12.37
2022-10-17T01:27:27.072Z,12.38
2022-10-17T01:30:13.830Z,12.30
2022-10-17T01:32:48.966Z,12.29
2022-10-17T01:35:21.682Z,12.28
2022-10-17T01:37:54.513Z,12.21
2022-10-17T01:40:27.352Z,12.18
2022-10-17T01:42:59.206Z,12.30
2022-10-17T01:45:32.338Z,12.16
2022-10-17T01:48:07.190Z,12.09
2022-10-17T01:50:42.401Z,12.14
2022-10-17T01:53:15.702Z,12.09
2022-10-17T01:55:46.191Z,12.07
2022-10-17T01:58:19.012Z,12.06
2022-10-17T02:00:49.388Z,12.01
2022-10-17T02:03:22.138Z,12.03
2022-10-17T02:05:49.956Z,12.04
2022-10-17T02:08:27.276Z,12.07
2022-10-17T02:11:01.527Z,12.12
2022-10-17T02:13:42.070Z,12.11
2022-10-17T02:16:17.469Z,12.05
2022-10-17T02:19:09.227Z,12.05
2022-10-17T02:21:44.832Z,12.04
2022-10-17T02:24:21.570Z,12.14
2022-10-17T02:26:57.532Z,11.97
2022-10-17T02:29:30.367Z,11.94
2022-10-17T02:32:04.743Z,11.82
2022-10-17T02:34:39.531Z,11.80
2022-10-17T02:37:09.501Z,11.94
2022-10-17T02:39:40.690Z,11.90
2022-10-17T02:42:12.362Z,11.94
2022-10-17T02:44:44.196Z,11.97
2022-10-17T02:47:17.931Z,11.96
2022-10-17T02:49:51.784Z,11.88
2022-10-17T02:52:27.354Z,11.85
2022-10-17T02:55:00.628Z,11.75
2022-10-17T02:57:31.695Z,11.80
2022-10-17T03:00:02.151Z,11.66
2022-10-17T03:02:30.227Z,11.78
2022-10-17T03:04:59.460Z,11.89
2022-10-17T03:07:27.199Z,11.96
2022-10-17T03:09:54.912Z,12.00
2022-10-17T03:12:22.801Z,12.05
2022-10-17T03:14:50.519Z,12.05
2022-10-17T03:17:18.184Z,12.03
2022-10-17T03:19:45.931Z,11.84
2022-10-17T03:22:14.985Z,11.64
2022-10-17T03:24:42.812Z,11.46
2022-10-17T03:27:10.573Z,11.51
2022-10-17T03:29:38.252Z,11.38
2022-10-17T03:32:06.392Z,11.31
2022-10-17T03:34:34.095Z,11.23
2022-10-17T03:37:01.760Z,11.20
2022-10-17T03:39:30.849Z,11.23
2022-10-17T03:41:58.494Z,11.24
2022-10-17T03:44:26.279Z,11.26
2022-10-17T03:46:53.917Z,11.25
2022-10-17T03:49:21.646Z,11.21
2022-10-17T03:51:49.331Z,11.10
2022-10-17T03:54:16.966Z,11.16
2022-10-17T03:56:46.023Z,11.30
2022-10-17T03:59:14.256Z,11.35
2022-10-17T04:01:42.327Z,11.55
2022-10-17T04:04:10.489Z,11.63
2022-10-17T04:06:38.719Z,11.61
2022-10-17T04:09:07.666Z,11.57
2022-10-17T04:11:35.591Z,11.68
2022-10-17T04:14:04.722Z,11.69
2022-10-17T04:16:38.358Z,11.71
2022-10-17T04:19:06.093Z,11.32
2022-10-17T04:21:33.768Z,10.98
2022-10-17T04:24:02.106Z,10.83
2022-10-17T04:26:29.819Z,10.72
2022-10-17T04:28:57.514Z,10.60
2022-10-17T04:31:26.600Z,10.60
2022-10-17T04:33:54.287Z,10.69
2022-10-17T04:36:22.966Z,10.66
2022-10-17T04:38:50.636Z,10.73
2022-10-17T04:41:19.467Z,10.84
2022-10-17T04:43:50.261Z,10.78
2022-10-17T04:46:19.038Z,10.87
2022-10-17T04:48:48.094Z,10.76
2022-10-17T04:51:18.816Z,10.90
2022-10-17T04:53:48.510Z,10.83
2022-10-17T04:56:18.274Z,10.62
2022-10-17T04:58:46.887Z,10.66
2022-10-17T05:01:17.153Z,10.63
2022-10-17T05:03:45.278Z,10.65
2022-10-17T05:06:16.903Z,10.64
2022-10-17T05:08:45.487Z,10.65
2022-10-17T05:11:21.906Z,10.58
2022-10-17T05:13:53.929Z,10.55
2022-10-17T05:16:22.025Z,10.62
2022-10-17T05:18:52.918Z,10.67
2022-10-17T05:21:24.061Z,10.62
2022-10-17T05:23:52.037Z,10.77
2022-10-17T05:26:19.757Z,10.66
2022-10-17T05:28:47.503Z,10.60
2022-10-17T05:31:15.428Z,10.53
2022-10-17T05:33:43.114Z,10.52
2022-10-17T05:36:11.115Z,10.42
2022-10-17T05:38:40.187Z,10.47
2022-10-17T05:41:07.969Z,10.47
2022-10-17T05:43:36.101Z,10.45
2022-10-17T05:46:05.276Z,10.50
2022-10-17T05:48:33.566Z,10.50
2022-10-17T05:51:02.065Z,10.48
2022-10-17T05:53:33.113Z,10.63
2022-10-17T05:56:03.990Z,10.58
2022-10-17T05:58:45.835Z,10.53
2022-10-17T06:01:16.751Z,10.50
2022-10-17T06:03:44.448Z,10.50
2022-10-17T06:06:14.189Z,10.51
2022-10-17T06:08:42.005Z,10.58
2022-10-17T06:11:11.992Z,10.60
2022-10-17T06:13:40.138Z,10.66
2022-10-17T06:16:08.395Z,10.71
2022-10-17T06:18:36.135Z,10.79
2022-10-17T06:21:05.662Z,10.82
2022-10-17T06:23:33.804Z,10.72
2022-10-17T06:26:02.281Z,10.88
2022-10-17T06:28:31.902Z,11.00
2022-10-17T06:30:59.665Z,11.20
2022-10-17T06:33:27.364Z,11.25
2022-10-17T06:35:56.251Z,11.43
2022-10-17T06:38:24.359Z,11.67
2022-10-17T06:40:53.896Z,11.79
2022-10-17T06:43:27.012Z,11.77
2022-10-17T06:48:29.775Z,11.95
2022-10-17T06:51:00.175Z,12.13
2022-10-17T06:53:29.551Z,12.45
2022-10-17T06:56:01.367Z,12.33
2022-10-17T06:58:29.432Z,12.55
2022-10-17T07:01:01.453Z,12.60
2022-10-17T07:03:29.129Z,12.93
2022-10-17T07:05:57.663Z,12.93
2022-10-17T07:08:28.796Z,12.80
2022-10-17T07:11:09.924Z,12.55
2022-10-17T07:13:39.342Z,12.77
2022-10-17T07:16:09.381Z,13.03
2022-10-17T07:18:37.317Z,13.71
2022-10-17T07:21:05.389Z,13.87
2022-10-17T07:23:36.512Z,14.18
2022-10-17T07:26:07.495Z,14.66
2022-10-17T07:28:35.900Z,14.84
2022-10-17T07:31:09.809Z,14.65
2022-10-17T07:33:37.935Z,14.66
2022-10-17T07:36:06.826Z,15.19
2022-10-17T07:38:35.717Z,15.06
2022-10-17T07:41:05.874Z,15.57
2022-10-17T07:43:34.174Z,15.48
2022-10-17T07:46:02.676Z,16.17
2022-10-17T07:48:31.960Z,16.41
2022-10-17T07:51:02.662Z,15.94
2022-10-17T07:53:30.390Z,16.06
2022-10-17T07:55:58.287Z,15.64
2022-10-17T07:58:26.309Z,16.20
2022-10-17T08:00:54.151Z,15.69
2022-10-17T08:03:21.938Z,15.63
2022-10-17T08:05:50.986Z,16.09
2022-10-17T08:08:18.709Z,16.54
2022-10-17T08:10:46.439Z,16.14
2022-10-17T08:13:14.213Z,17.01
2022-10-17T08:15:41.942Z,16.60
2022-10-17T08:18:09.664Z,16.21
2022-10-17T08:20:38.252Z,16.16
2022-10-17T08:23:07.578Z,15.67
2022-10-17T08:25:35.259Z,16.23
2022-10-17T08:28:03.038Z,15.69
2022-10-17T08:30:31.174Z,15.96
2022-10-17T08:32:58.940Z,16.18
2022-10-17T08:35:26.634Z,16.11
2022-10-17T08:37:54.446Z,15.94
2022-10-17T08:40:27.525Z,16.05
2022-10-17T08:43:14.452Z,16.12
2022-10-17T08:45:48.370Z,16.43
2022-10-17T08:48:18.947Z,16.53
2022-10-17T08:50:50.199Z,16.85
2022-10-17T08:53:25.103Z,17.66
2022-10-17T08:55:55.891Z,17.75
2022-10-17T08:58:24.935Z,17.90
2022-10-17T09:01:03.599Z,17.95
2022-10-17T09:03:45.768Z,17.63
2022-10-17T09:06:20.564Z,17.72
2022-10-17T09:09:08.430Z,17.16
2022-10-17T09:11:49.885Z,16.93
2022-10-17T09:14:31.239Z,16.93
2022-10-17T09:17:11.594Z,17.38
2022-10-17T09:19:44.643Z,16.81
2022-10-17T09:22:18.050Z,16.68
2022-10-17T09:24:53.400Z,16.81
2022-10-17T09:27:26.310Z,17.07
2022-10-17T09:29:59.162Z,16.97
2022-10-17T09:32:27.539Z,17.18
2022-10-17T09:34:55.500Z,17.29
2022-10-17T09:37:32.497Z,16.91
2022-10-17T09:40:00.203Z,16.99
2022-10-17T09:42:30.057Z,17.20
2022-10-17T09:45:14.342Z,17.26
2022-10-17T09:47:47.543Z,17.46
2022-10-17T09:50:23.959Z,17.56
2022-10-17T09:52:52.081Z,17.64
2022-10-17T09:55:23.151Z,17.71
2022-10-17T09:57:58.288Z,17.47
2022-10-17T10:00:28.398Z,17.54
2022-10-17T10:03:11.096Z,17.24
2022-10-17T10:05:38.868Z,17.16
2022-10-17T10:08:14.252Z,17.26
2022-10-17T10:10:43.152Z,17.44
2022-10-17T10:13:21.317Z,17.66
2022-10-17T10:15:50.899Z,17.60
2022-10-17T10:21:08.229Z,18.04
2022-10-17T10:23:39.918Z,18.57
2022-10-17T10:26:21.063Z,19.31
2022-10-17T10:29:20.903Z,20.38
2022-10-17T10:31:50.134Z,20.80
2022-10-17T10:34:22.295Z,20.62
2022-10-17T10:36:54.714Z,21.48
2022-10-17T10:39:32.245Z,21.74
2022-10-17T10:42:00.825Z,22.40
2022-10-17T10:44:32.121Z,22.98
2022-10-17T10:47:16.614Z,22.57
2022-10-17T10:49:45.229Z,22.65
2022-10-17T10:52:19.099Z,23.11
2022-10-17T10:54:56.533Z,23.45
2022-10-17T10:57:30.321Z,23.79
2022-10-17T11:00:09.631Z,24.09
2022-10-17T11:02:45.577Z,24.52
2022-10-17T11:05:21.849Z,23.94
2022-10-17T11:07:56.187Z,24.18
2022-10-17T11:10:31.824Z,23.96
2022-10-17T11:13:06.815Z,23.36
2022-10-17T11:15:41.446Z,23.07
2022-10-17T11:18:14.097Z,23.27
2022-10-17T11:20:51.626Z,22.84
2022-10-17T11:23:24.464Z,21.96
2022-10-17T11:25:54.744Z,21.82
2022-10-17T11:28:24.431Z,21.40
2022-10-17T11:31:02.332Z,22.43
2022-10-17T11:33:42.939Z,22.41
2022-10-17T11:36:12.203Z,21.85
2022-10-17T11:38:45.806Z,21.44
2022-10-17T11:41:18.260Z,21.99
2022-10-17T11:43:53.076Z,21.86
2022-10-17T11:46:24.466Z,22.25
2022-10-17T11:49:02.463Z,22.16
2022-10-17T11:52:03.372Z,22.87
2022-10-17T11:54:34.748Z,23.10
2022-10-17T11:57:28.106Z,23.85
2022-10-17T12:00:07.915Z,24.78
2022-10-17T12:02:46.941Z,26.08
2022-10-17T12:05:25.845Z,26.70
2022-10-17T12:08:00.872Z,28.32
2022-10-17T12:10:40.494Z,29.18
2022-10-17T12:13:47.366Z,30.51
2022-10-17T12:16:38.275Z,30.49
2022-10-17T12:19:25.606Z,30.66
2022-10-17T12:22:03.393Z,32.04
2022-10-17T12:24:41.683Z,32.84
2022-10-17T12:27:42.413Z,29.91
2022-10-17T12:30:22.685Z,28.14
2022-10-17T12:33:21.836Z,29.85
2022-10-17T12:35:52.484Z,28.07
2022-10-17T12:38:23.180Z,28.04
2022-10-17T12:41:06.494Z,27.23
2022-10-17T12:43:45.503Z,25.12
2022-10-17T12:46:13.637Z,23.86
2022-10-17T12:49:38.584Z,22.84
2022-10-17T12:52:48.999Z,22.13
2022-10-17T12:55:19.554Z,21.53
2022-10-17T12:57:56.569Z,21.29
2022-10-17T13:00:32.817Z,21.06
2022-10-17T13:03:07.039Z,21.01
2022-10-17T13:05:37.053Z,20.68
2022-10-17T13:08:07.510Z,20.53
2022-10-17T13:10:43.063Z,20.29
2022-10-17T13:13:16.820Z,20.16
2022-10-17T13:15:48.134Z,20.39
2022-10-17T13:18:21.930Z,20.33
2022-10-17T13:21:01.285Z,20.10
2022-10-17T13:23:33.153Z,19.86
2022-10-17T13:26:08.235Z,19.73
2022-10-17T13:28:39.315Z,19.64
2022-10-17T13:31:07.891Z,19.35
2022-10-17T13:33:39.134Z,19.23
2022-10-17T13:36:09.504Z,19.18
2022-10-17T13:38:40.351Z,19.28
2022-10-17T13:41:35.754Z,19.16
2022-10-17T13:44:08.072Z,19.11
2022-10-17T13:46:38.339Z,19.11
2022-10-17T13:49:23.209Z,18.97
2022-10-17T13:51:55.106Z,18.93
2022-10-17T13:54:41.071Z,18.99
2022-10-17T13:57:21.503Z,18.98
2022-10-17T13:59:52.896Z,19.06
2022-10-17T14:02:22.333Z,19.03
2022-10-17T14:05:18.704Z,19.00
2022-10-17T14:08:10.595Z,19.04
2022-10-17T14:10:41.055Z,19.02
2022-10-17T14:13:21.557Z,18.91
2022-10-17T14:15:49.883Z,18.94
2022-10-17T14:18:21.658Z,18.98
2022-10-17T14:23:42.021Z,18.90
2022-10-17T14:26:13.710Z,18.87
2022-10-17T14:28:45.582Z,18.71
2022-10-17T14:31:26.186Z,18.80
2022-10-17T14:33:55.457Z,18.70
2022-10-17T14:36:35.920Z,18.73
2022-10-17T14:39:07.705Z,18.68
2022-10-17T14:41:43.962Z,18.71
2022-10-17T14:44:21.594Z,18.67
2022-10-17T14:46:55.429Z,18.64
2022-10-17T14:49:35.115Z,18.63
2022-10-17T14:52:28.262Z,18.61
2022-10-17T14:54:57.256Z,18.46
2022-10-17T14:57:29.291Z,18.62
2022-10-17T14:59:58.567Z,18.58
2022-10-17T15:02:27.938Z,18.57
2022-10-17T15:04:56.445Z,18.45
2022-10-17T15:07:24.607Z,18.49
2022-10-17T15:09:54.435Z,18.45
2022-10-17T15:12:24.988Z,18.41
2022-10-17T15:14:53.741Z,18.43
2022-10-17T15:17:27.058Z,18.27
2022-10-17T15:19:55.244Z,18.38
2022-10-17T15:22:23.312Z,18.34
2022-10-17T15:24:51.381Z,18.29
2022-10-17T15:27:21.128Z,18.27
2022-10-17T15:29:49.983Z,18.21
2022-10-17T15:32:17.836Z,18.23
2022-10-17T15:34:47.074Z,18.21
2022-10-17T15:37:18.781Z,18.16
2022-10-17T15:39:52.886Z,17.90
2022-10-17T15:42:22.113Z,17.94
2022-10-17T15:44:50.440Z,17.85
2022-10-17T15:47:25.478Z,17.81
2022-10-17T15:49:55.245Z,17.82
2022-10-17T15:52:23.741Z,17.76
2022-10-17T15:54:51.607Z,17.74
2022-10-17T15:57:21.262Z,17.75
2022-10-17T15:59:50.272Z,17.71
2022-10-17T16:02:19.649Z,17.75
2022-10-17T16:04:49.227Z,17.74
2022-10-17T16:07:19.053Z,17.71
2022-10-17T16:09:47.324Z,17.65
2022-10-17T16:12:18.829Z,17.58
2022-10-17T16:14:46.643Z,17.46
2022-10-17T16:17:16.109Z,17.43
2022-10-17T16:19:44.266Z,17.28
2022-10-17T16:22:22.193Z,17.15
2022-10-17T16:24:49.964Z,17.04
2022-10-17T16:27:17.649Z,16.98
2022-10-17T16:29:45.360Z,16.92
2022-10-17T16:32:13.039Z,16.88
2022-10-17T16:34:40.809Z,16.87
2022-10-17T16:37:08.958Z,16.89
2022-10-17T16:39:38.118Z,16.80
2022-10-17T16:42:05.835Z,16.76
2022-10-17T16:44:33.582Z,16.62
2022-10-17T16:47:01.711Z,16.58
2022-10-17T16:49:29.431Z,16.59
2022-10-17T16:51:57.204Z,16.64
2022-10-17T16:54:24.915Z,16.67
2022-10-17T16:56:53.973Z,16.82
2022-10-17T16:59:21.901Z,16.76
2022-10-17T17:01:49.632Z,16.68
2022-10-17T17:04:18.017Z,16.70
2022-10-17T17:09:18.354Z,16.84
2022-10-17T17:11:46.173Z,16.68
2022-10-17T17:14:15.302Z,16.66
2022-10-17T17:16:43.357Z,16.66
2022-10-17T17:19:15.064Z,16.65
2022-10-17T17:21:47.671Z,16.65
2022-10-17T17:24:15.456Z,16.49
2022-10-17T17:26:43.157Z,16.27
2022-10-17T17:29:12.145Z,16.21
2022-10-17T17:31:41.243Z,16.15
2022-10-17T17:34:09.644Z,16.16
2022-10-17T17:36:39.401Z,16.20
2022-10-17T17:39:16.391Z,16.13
2022-10-17T17:41:45.624Z,15.99
2022-10-17T17:44:16.741Z,15.93
2022-10-17T17:46:46.595Z,15.95
2022-10-17T17:49:14.394Z,15.94
2022-10-17T17:51:46.568Z,15.96
2022-10-17T17:54:15.200Z,15.96
2022-10-17T17:56:43.213Z,15.80
2022-10-17T17:59:12.727Z,15.80
2022-10-17T18:01:40.624Z,15.81
2022-10-17T18:04:10.116Z,15.78
2022-10-17T18:06:38.731Z,15.62
2022-10-17T18:09:09.132Z,15.66
2022-10-17T18:11:38.659Z,15.55
2022-10-17T18:14:08.922Z,15.47
2022-10-17T18:16:38.177Z,15.40
2022-10-17T18:19:07.434Z,15.32
2022-10-17T18:21:37.159Z,15.32
2022-10-17T18:24:05.666Z,15.29
2022-10-17T18:26:34.291Z,15.20
2022-10-17T18:29:02.267Z,15.07
2022-10-17T18:31:35.620Z,15.10
2022-10-17T18:34:05.032Z,15.03
2022-10-17T18:36:34.836Z,15.01
2022-10-17T18:39:04.858Z,15.01
2022-10-17T18:41:33.781Z,15.07
2022-10-17T18:44:02.898Z,15.17
2022-10-17T18:46:35.427Z,15.10
2022-10-17T18:49:03.993Z,15.02
2022-10-17T18:51:31.748Z,15.05
2022-10-17T18:53:59.536Z,14.97
2022-10-17T18:56:28.803Z,14.94
2022-10-17T18:58:57.461Z,14.92
2022-10-17T19:01:27.524Z,14.86
2022-10-17T19:03:57.156Z,14.88
2022-10-17T19:06:27.048Z,14.87
2022-10-17T19:08:54.857Z,14.81
2022-10-17T19:11:24.443Z,14.83
2022-10-17T19:13:54.261Z,14.87
2022-10-17T19:16:24.286Z,14.80
2022-10-17T19:18:53.357Z,14.70
2022-10-17T19:21:22.229Z,14.58
2022-10-17T19:23:52.258Z,14.62
2022-10-17T19:26:20.974Z,14.59
2022-10-17T19:28:52.142Z,14.62
2022-10-17T19:31:26.421Z,14.61
2022-10-17T19:33:55.506Z,14.58
2022-10-17T19:36:28.856Z,14.63
2022-10-17T19:39:00.184Z,14.49
2022-10-17T19:41:28.304Z,14.43
2022-10-17T19:43:56.343Z,14.38
2022-10-17T19:46:28.442Z,14.36
2022-10-17T19:48:55.974Z,14.30
2022-10-17T19:51:25.325Z,14.31
2022-10-17T19:53:54.097Z,14.25
2022-10-17T19:56:22.919Z,14.27
2022-10-17T19:58:52.176Z,14.22
2022-10-17T20:01:22.848Z,14.18
2022-10-17T20:03:52.451Z,14.12
2022-10-17T20:06:26.725Z,14.10
2022-10-17T20:08:58.528Z,14.21
2022-10-17T20:11:28.122Z,14.22
2022-10-17T20:13:57.075Z,14.17
2022-10-17T20:16:26.824Z,14.19
2022-10-17T20:18:58.230Z,14.18
2022-10-17T20:21:28.631Z,14.19
2022-10-17T20:23:56.497Z,14.25
2022-10-17T20:26:37.551Z,14.23
2022-10-17T20:29:11.051Z,14.18
2022-10-17T20:31:40.091Z,14.03
2022-10-17T20:34:12.559Z,14.04
2022-10-17T20:36:40.300Z,14.02
2022-10-17T20:39:08.541Z,13.86
2022-10-17T20:41:36.513Z,13.91
2022-10-17T20:44:04.616Z,13.96
2022-10-17T20:46:37.279Z,13.93
2022-10-17T20:49:07.792Z,13.90
2022-10-17T20:51:37.114Z,13.91
2022-10-17T20:54:05.348Z,13.94
2022-10-17T20:56:34.441Z,13.94
2022-10-17T20:59:04.036Z,13.95
2022-10-17T21:01:33.481Z,13.86
2022-10-17T21:04:21.291Z,13.90
2022-10-17T21:06:51.865Z,13.84
2022-10-17T21:09:20.163Z,13.87
2022-10-17T21:11:51.166Z,13.88
2022-10-17T21:14:19.368Z,13.88
2022-10-17T21:16:47.248Z,13.83
2022-10-17T21:19:15.763Z,13.88
2022-10-17T21:21:45.887Z,13.82
2022-10-17T21:24:17.838Z,13.82
2022-10-17T21:26:46.942Z,13.80
2022-10-17T21:29:15.070Z,13.79
2022-10-17T21:31:44.316Z,13.70
2022-10-17T21:34:13.816Z,13.59
2022-10-17T21:36:44.613Z,13.58
2022-10-17T21:39:13.342Z,13.73
2022-10-17T21:41:43.274Z,13.62
2022-10-17T21:44:14.436Z,13.55
2022-10-17T21:46:42.512Z,13.61
2022-10-17T21:49:11.788Z,13.55
2022-10-17T21:51:39.899Z,13.53
2022-10-17T21:54:08.037Z,13.53
2022-10-17T21:56:36.439Z,13.55
2022-10-17T21:59:06.287Z,13.47
2022-10-17T22:01:37.224Z,13.44
2022-10-17T22:04:07.172Z,13.37
2022-10-17T22:06:40.161Z,13.35
2022-10-17T22:09:13.288Z,13.27
2022-10-17T22:11:41.546Z,13.35
2022-10-17T22:14:13.888Z,13.32
2022-10-17T22:16:42.260Z,13.36
2022-10-17T22:19:12.389Z,13.32
2022-10-17T22:21:40.416Z,13.35
2022-10-17T22:24:11.698Z,13.37
2022-10-17T22:26:40.431Z,13.32
2022-10-17T22:29:10.573Z,13.34
2022-10-17T22:31:39.136Z,13.32
2022-10-17T22:34:07.833Z,13.28
2022-10-17T22:36:36.212Z,13.27
2022-10-17T22:39:05.196Z,13.16
2022-10-17T22:41:33.071Z,13.22
2022-10-17T22:44:00.903Z,13.22
2022-10-17T22:46:30.304Z,13.15
2022-10-17T22:48:58.093Z,13.15
2022-10-17T22:51:26.115Z,13.15
2022-10-17T22:53:53.812Z,13.07
2022-10-17T22:56:22.826Z,13.03
2022-10-17T22:58:51.147Z,13.05
2022-10-17T23:01:21.331Z,13.07
2022-10-17T23:03:51.245Z,13.05
2022-10-17T23:06:19.500Z,13.04
2022-10-17T23:08:47.260Z,13.06
2022-10-17T23:11:15.278Z,13.03
2022-10-17T23:13:43.033Z,13.04
2022-10-17T23:16:11.388Z,13.06
2022-10-17T23:18:39.764Z,13.08
2022-10-17T23:21:09.201Z,13.07
2022-10-17T23:23:37.502Z,13.03
2022-10-17T23:26:07.132Z,13.02
2022-10-17T23:28:35.631Z,12.99
2022-10-17T23:31:12.069Z,13.07
2022-10-17T23:33:41.244Z,13.06
2022-10-17T23:36:11.836Z,13.07
2022-10-17T23:38:40.197Z,13.03
2022-10-17T23:41:08.921Z,13.11
2022-10-17T23:43:36.800Z,13.16
2022-10-17T23:46:06.121Z,13.26
2022-10-17T23:48:34.197Z,13.31
2022-10-17T23:51:02.125Z,13.37
2022-10-17T23:53:31.288Z,13.39
2022-10-17T23:55:59.058Z,13.38
2022-10-17T23:58:26.863Z,13.44
